East Orange, Vermont
Current Conditions -  °F | °C
As of 3:29 PM on Tuesday 21 Oct 2014 (Local Time) from KMPV Reporting Station
Light Rain Light Rain  
Wind Chill: 45°   Ceiling: 300
Heat Index: 45°   Visibility: 4mi
Dew Point: 45°   Wind: 3mph
Humidity: 100%   Direction: 20°NNE
Pressure: 30.02"   Gusts: NA
Location:  44.1344°N, 72.2538°W
Report Text: KMPV 211929Z AUTO 02003KT 4SM -RA BR OVC003 07/07 A3002 RMK AO2 CIG 001V006 P0002 T00720072
Loading
Personal Weather Stations






























Interactive Weather Map
Tropical Storm Tracking
New forecast layout! Learn more

10-Day Weather Forecast

Advertisements
Track Severe Weather on mobile